Time;durP1;ratioP1;P1;durP2;ratioP2;P2;SDS_P1;SDS_P2;PMS_P1;PMS_P2;Temp;Humidity;BMP_temperature;BMP_pressure;BME280_temperature;BME280_humidity;BME280_pressure;Samples;Min_cycle;Max_cycle;Signal;HPM_P1;HPM_P2
2021/06/28 00:00:10;;;;;;;2.10;1.00;;;24.20;89.50;;;;;;5021605;28;20048;-73
2021/06/28 00:02:39;;;;;;;4.75;1.20;;;24.20;89.50;;;;;;5022836;28;20128;-73
2021/06/28 00:05:10;;;;;;;4.03;0.90;;;24.20;89.50;;;;;;5043065;28;20046;-73
2021/06/28 00:07:39;;;;;;;1.98;1.00;;;24.10;89.50;;;;;;5016463;28;20053;-73
2021/06/28 00:10:11;;;;;;;3.67;1.15;;;24.00;89.70;;;;;;5021765;28;20400;-73
2021/06/28 00:12:39;;;;;;;3.08;1.23;;;23.90;89.80;;;;;;5020021;28;20054;-73
2021/06/28 00:15:11;;;;;;;7.68;1.10;;;24.00;89.80;;;;;;5024972;28;20065;-73
2021/06/28 00:17:39;;;;;;;2.03;0.90;;;24.00;90.10;;;;;;5021364;28;20045;-73
2021/06/28 00:20:10;;;;;;;1.63;0.95;;;23.90;90.10;;;;;;5030235;28;20467;-73
2021/06/28 00:22:38;;;;;;;2.08;1.10;;;23.90;90.20;;;;;;5024090;28;20036;-72
2021/06/28 00:25:11;;;;;;;2.45;1.00;;;23.80;90.20;;;;;;5022436;28;20365;-73
2021/06/28 00:27:41;;;;;;;2.30;1.10;;;23.80;90.40;;;;;;5021802;28;20157;-73
2021/06/28 00:30:27;;;;;;;5.00;1.13;;;23.80;90.50;;;;;;5028915;28;20052;-73
2021/06/28 00:32:56;;;;;;;5.53;1.30;;;23.70;90.70;;;;;;5018734;28;20041;-72
2021/06/28 00:35:24;;;;;;;2.55;1.23;;;23.70;90.90;;;;;;5027924;28;20108;-73
2021/06/28 00:37:53;;;;;;;1.30;0.75;;;23.60;90.50;;;;;;5024061;28;20045;-72
2021/06/28 00:40:23;;;;;;;2.33;1.13;;;23.50;90.80;;;;;;5022009;28;20041;-73
2021/06/28 00:42:51;;;;;;;8.68;1.15;;;23.40;91.40;;;;;;5020309;28;20473;-73
2021/06/28 00:45:23;;;;;;;4.95;1.17;;;23.40;93.30;;;;;;5028757;28;20065;-73
2021/06/28 00:47:53;;;;;;;2.95;1.17;;;23.50;94.80;;;;;;5028758;28;20045;-73
2021/06/28 00:50:22;;;;;;;4.07;1.27;;;23.40;95.20;;;;;;5021349;28;20056;-73
2021/06/28 00:52:55;;;;;;;3.90;1.17;;;23.40;94.60;;;;;;5025666;28;20030;-73
2021/06/28 00:55:26;;;;;;;2.75;1.20;;;23.30;93.60;;;;;;5019832;28;20048;-73
2021/06/28 00:57:55;;;;;;;3.00;1.20;;;23.20;93.30;;;;;;5026104;28;20494;-73
2021/06/28 01:00:24;;;;;;;2.13;1.40;;;23.20;93.10;;;;;;5022947;28;20047;-73
2021/06/28 01:02:53;;;;;;;3.63;1.17;;;23.10;93.30;;;;;;5013381;28;20140;-73
2021/06/28 01:05:24;;;;;;;4.75;1.17;;;23.10;93.40;;;;;;5018733;28;20560;-73
2021/06/28 01:07:52;;;;;;;3.10;0.93;;;23.10;93.80;;;;;;5022349;28;20525;-73
2021/06/28 01:10:21;;;;;;;3.70;1.40;;;23.10;94.70;;;;;;5026762;28;20033;-72
2021/06/28 01:12:52;;;;;;;3.95;1.13;;;23.00;95.10;;;;;;5027306;28;20044;-73
2021/06/28 01:15:21;;;;;;;2.78;0.95;;;23.00;94.40;;;;;;5000545;28;20431;-73
2021/06/28 01:17:49;;;;;;;3.08;1.10;;;23.00;94.30;;;;;;5020038;28;20048;-73
2021/06/28 01:20:20;;;;;;;2.85;1.23;;;23.10;94.20;;;;;;5005183;28;20049;-73
2021/06/28 01:22:50;;;;;;;6.15;1.45;;;23.10;94.30;;;;;;5022245;28;20411;-72
2021/06/28 01:25:21;;;;;;;3.10;1.23;;;23.00;94.30;;;;;;5004267;28;20041;-73
2021/06/28 01:27:51;;;;;;;5.10;1.05;;;23.00;94.40;;;;;;5019872;28;20046;-73
2021/06/28 01:30:21;;;;;;;4.72;1.60;;;23.00;94.10;;;;;;5021229;28;20045;-73
2021/06/28 01:32:50;;;;;;;2.95;1.13;;;22.90;94.00;;;;;;5024282;28;20125;-73
2021/06/28 01:35:19;;;;;;;3.60;1.23;;;22.80;93.90;;;;;;5022894;28;20117;-73
2021/06/28 01:37:48;;;;;;;2.50;1.17;;;22.70;93.80;;;;;;5020117;28;20076;-73
2021/06/28 01:40:18;;;;;;;2.65;1.30;;;22.70;94.10;;;;;;5028630;28;20045;-72
2021/06/28 01:42:49;;;;;;;3.88;1.15;;;22.70;94.30;;;;;;5020960;28;21050;-73
2021/06/28 01:45:20;;;;;;;5.70;1.33;;;22.70;94.70;;;;;;5027138;28;20565;-73
2021/06/28 01:47:50;;;;;;;3.22;1.17;;;22.70;94.80;;;;;;5018752;28;20041;-73
2021/06/28 01:50:21;;;;;;;3.40;1.30;;;22.70;94.70;;;;;;5024647;28;20037;-73
2021/06/28 01:52:50;;;;;;;1.70;1.02;;;22.70;94.80;;;;;;5020920;28;20107;-73
2021/06/28 01:55:19;;;;;;;5.90;1.75;;;22.70;94.60;;;;;;5021926;28;20558;-73
2021/06/28 01:57:52;;;;;;;5.38;1.33;;;22.70;94.50;;;;;;5019853;28;20049;-73
2021/06/28 02:00:23;;;;;;;1.75;1.10;;;22.70;94.30;;;;;;5025307;28;20033;-73
2021/06/28 02:03:03;;;;;;;3.42;1.83;;;22.70;94.30;;;;;;5020847;28;20045;-73
2021/06/28 02:05:34;;;;;;;2.97;1.20;;;22.60;94.50;;;;;;5021246;28;20507;-73
2021/06/28 02:08:05;;;;;;;5.00;1.02;;;22.60;94.70;;;;;;5022446;28;20619;-74
2021/06/28 02:10:34;;;;;;;3.10;1.23;;;22.50;94.80;;;;;;5022505;28;20045;-73
2021/06/28 02:13:04;;;;;;;4.15;1.20;;;22.50;94.90;;;;;;5022153;28;20604;-73
2021/06/28 02:15:33;;;;;;;3.85;1.40;;;22.50;95.10;;;;;;5023186;28;20514;-73
2021/06/28 02:18:03;;;;;;;4.75;1.52;;;22.50;95.20;;;;;;5024549;28;20041;-73
2021/06/28 02:20:31;;;;;;;3.05;1.30;;;22.50;95.60;;;;;;5020808;28;20044;-73
2021/06/28 02:23:21;;;;;;;2.60;1.30;;;22.50;95.50;;;;;;5016524;28;20033;-74
2021/06/28 02:25:54;;;;;;;2.75;1.25;;;22.40;95.60;;;;;;5028401;28;20033;-74
2021/06/28 02:28:25;;;;;;;2.53;1.60;;;22.40;95.90;;;;;;5004562;28;20045;-75
2021/06/28 02:30:55;;;;;;;4.47;1.30;;;22.40;95.90;;;;;;5027864;28;20364;-75
2021/06/28 02:33:24;;;;;;;3.58;1.40;;;22.30;96.10;;;;;;5015560;28;20575;-74
2021/06/28 02:35:54;;;;;;;5.18;1.63;;;22.30;96.30;;;;;;5018332;28;20060;-74
2021/06/28 02:38:23;;;;;;;4.47;1.60;;;22.30;96.20;;;;;;5003006;28;20033;-74
2021/06/28 02:40:52;;;;;;;3.58;1.42;;;22.30;95.90;;;;;;5023536;28;20131;-74
2021/06/28 02:43:21;;;;;;;3.72;1.40;;;22.30;95.70;;;;;;5019121;28;20499;-74
2021/06/28 02:45:51;;;;;;;2.47;1.30;;;22.20;95.70;;;;;;5021226;28;20510;-74
2021/06/28 02:48:20;;;;;;;3.65;1.70;;;22.10;96.40;;;;;;5021053;28;20041;-74
2021/06/28 02:50:49;;;;;;;3.70;1.55;;;22.20;96.10;;;;;;5022041;28;20041;-74
2021/06/28 02:53:17;;;;;;;3.60;1.48;;;22.20;96.10;;;;;;5026866;28;20556;-74
2021/06/28 02:55:47;;;;;;;4.60;1.52;;;22.20;96.20;;;;;;5019036;28;20319;-73
2021/06/28 02:58:16;;;;;;;2.78;1.10;;;22.10;96.40;;;;;;5017674;28;20396;-74
2021/06/28 03:00:44;;;;;;;4.35;1.35;;;22.10;96.60;;;;;;5019693;28;20066;-74
2021/06/28 03:03:14;;;;;;;2.42;1.67;;;22.00;96.70;;;;;;5023544;28;20103;-74
2021/06/28 03:05:43;;;;;;;3.53;1.55;;;22.00;96.70;;;;;;5018219;28;20044;-74
2021/06/28 03:08:11;;;;;;;4.07;1.30;;;21.90;96.70;;;;;;5018268;28;20467;-73
2021/06/28 03:10:40;;;;;;;5.30;1.20;;;21.90;96.70;;;;;;5022963;28;20049;-73
2021/06/28 03:13:09;;;;;;;3.70;1.42;;;21.70;96.70;;;;;;5015161;28;20565;-73
2021/06/28 03:15:37;;;;;;;2.45;1.17;;;21.70;96.70;;;;;;5025501;28;20041;-75
2021/06/28 03:18:07;;;;;;;4.00;1.30;;;21.60;96.70;;;;;;5020433;28;20038;-75
2021/06/28 03:20:37;;;;;;;3.17;1.20;;;21.50;96.70;;;;;;5023312;28;20052;-75
2021/06/28 03:23:06;;;;;;;3.75;1.25;;;21.50;96.70;;;;;;5022163;28;20128;-75
2021/06/28 03:25:34;;;;;;;3.25;1.38;;;21.50;96.70;;;;;;4999895;28;20045;-75
2021/06/28 03:28:04;;;;;;;2.60;1.40;;;21.50;96.70;;;;;;5008796;28;20042;-74
2021/06/28 03:30:32;;;;;;;3.58;1.50;;;21.50;96.70;;;;;;5015924;28;20531;-74
2021/06/28 03:33:01;;;;;;;2.17;1.20;;;21.50;96.70;;;;;;5024133;28;20499;-74
2021/06/28 03:35:31;;;;;;;1.67;1.02;;;21.40;96.70;;;;;;5029708;28;20036;-74
2021/06/28 03:38:02;;;;;;;2.53;1.40;;;21.40;96.70;;;;;;5026427;28;20120;-74
2021/06/28 03:40:32;;;;;;;4.10;1.20;;;21.50;96.70;;;;;;5022049;28;20496;-72
2021/06/28 03:43:04;;;;;;;3.67;1.52;;;21.60;96.70;;;;;;5008024;28;20132;-74
2021/06/28 03:45:35;;;;;;;3.83;1.23;;;21.60;96.70;;;;;;5027658;28;20062;-75
2021/06/28 03:48:09;;;;;;;2.45;1.40;;;21.60;96.70;;;;;;5016064;23;20625;-75
2021/06/28 03:50:37;;;;;;;2.72;1.30;;;21.60;96.70;;;;;;5007841;28;20134;-75
2021/06/28 03:53:08;;;;;;;2.08;1.05;;;21.60;96.70;;;;;;5010326;28;20074;-75
2021/06/28 03:55:36;;;;;;;6.05;1.33;;;21.60;96.70;;;;;;5009789;28;20450;-75
2021/06/28 03:58:05;;;;;;;2.60;1.13;;;21.60;96.70;;;;;;5004956;28;20046;-74
2021/06/28 04:00:33;;;;;;;3.17;1.17;;;21.60;96.70;;;;;;5010282;28;20040;-75
2021/06/28 04:03:04;;;;;;;3.53;1.30;;;21.50;96.70;;;;;;5006477;28;20133;-74
2021/06/28 04:05:33;;;;;;;2.88;1.10;;;21.50;96.70;;;;;;5011453;28;20037;-74
2021/06/28 04:08:02;;;;;;;3.03;1.25;;;21.50;96.70;;;;;;5002301;28;20049;-74
2021/06/28 04:10:32;;;;;;;4.40;1.65;;;21.50;96.70;;;;;;5008824;28;20042;-74
2021/06/28 04:13:01;;;;;;;1.67;1.15;;;21.50;96.70;;;;;;5002642;28;20057;-75
2021/06/28 04:15:29;;;;;;;4.15;1.27;;;21.50;96.70;;;;;;5005425;28;20041;-74
2021/06/28 04:17:58;;;;;;;1.95;1.30;;;21.60;96.70;;;;;;5001942;28;20034;-74
2021/06/28 04:20:27;;;;;;;2.67;1.00;;;21.50;96.70;;;;;;5005873;28;20038;-74
2021/06/28 04:22:55;;;;;;;3.97;1.15;;;21.50;96.70;;;;;;5018648;28;20045;-74
2021/06/28 04:25:24;;;;;;;3.40;1.10;;;21.50;96.70;;;;;;5007133;28;20042;-74
2021/06/28 04:27:54;;;;;;;3.03;1.08;;;21.50;96.70;;;;;;4994530;28;20561;-75
2021/06/28 04:30:23;;;;;;;2.72;1.10;;;21.50;96.70;;;;;;5001397;28;20099;-74
2021/06/28 04:32:52;;;;;;;4.50;1.10;;;21.60;96.70;;;;;;5006655;28;20038;-75
2021/06/28 04:35:23;;;;;;;2.30;1.13;;;21.60;96.70;;;;;;5006916;28;20045;-74
2021/06/28 04:37:53;;;;;;;1.90;1.13;;;21.60;96.70;;;;;;5001860;28;20049;-74
2021/06/28 04:40:25;;;;;;;4.32;1.60;;;21.60;96.70;;;;;;5003131;28;20052;-74
2021/06/28 04:42:55;;;;;;;4.03;1.33;;;21.60;96.70;;;;;;5003815;28;20439;-75
2021/06/28 04:45:24;;;;;;;3.25;1.23;;;21.70;96.70;;;;;;5020094;28;20052;-74
2021/06/28 04:47:53;;;;;;;2.92;1.15;;;21.70;96.70;;;;;;5005503;28;21813;-74
2021/06/28 04:50:23;;;;;;;3.13;1.25;;;21.70;96.70;;;;;;5007726;28;20487;-74
2021/06/28 04:52:53;;;;;;;2.63;1.42;;;21.80;96.70;;;;;;5009344;28;20367;-75
2021/06/28 04:55:22;;;;;;;4.10;1.63;;;21.80;96.70;;;;;;5003804;28;20049;-74
2021/06/28 04:57:52;;;;;;;4.35;1.40;;;21.90;96.70;;;;;;5004538;28;20566;-75
2021/06/28 05:00:24;;;;;;;3.13;1.70;;;21.90;96.70;;;;;;5019960;28;20130;-75
2021/06/28 05:02:52;;;;;;;1.85;1.67;;;21.90;96.70;;;;;;5006588;28;20113;-73
2021/06/28 05:05:21;;;;;;;5.63;2.17;;;21.90;96.70;;;;;;5017744;28;20062;-74
2021/06/28 05:07:49;;;;;;;3.90;1.60;;;22.00;96.70;;;;;;5007533;28;20042;-74
2021/06/28 05:10:17;;;;;;;6.15;1.70;;;21.90;96.70;;;;;;5005300;28;20041;-74
2021/06/28 05:12:46;;;;;;;3.13;1.63;;;21.90;96.70;;;;;;5005204;28;20041;-74
2021/06/28 05:15:15;;;;;;;3.92;1.77;;;21.90;96.70;;;;;;5007165;28;20141;-75
2021/06/28 05:17:45;;;;;;;3.22;1.65;;;21.90;96.70;;;;;;5009276;28;20629;-75
2021/06/28 05:20:14;;;;;;;5.18;1.40;;;21.90;96.70;;;;;;5008667;28;20125;-75
2021/06/28 05:22:43;;;;;;;5.70;1.83;;;21.90;96.70;;;;;;5004270;28;20128;-75
2021/06/28 05:25:13;;;;;;;4.75;1.42;;;22.00;96.70;;;;;;5004719;28;20044;-75
2021/06/28 05:27:41;;;;;;;5.75;1.88;;;22.20;96.70;;;;;;5012915;28;20445;-75
2021/06/28 05:30:12;;;;;;;3.38;1.92;;;22.30;96.70;;;;;;5004820;28;20050;-75
2021/06/28 05:32:41;;;;;;;3.80;1.55;;;22.30;96.70;;;;;;5021512;28;20096;-75
2021/06/28 05:35:12;;;;;;;3.38;1.30;;;22.40;96.70;;;;;;5005477;28;20678;-75
2021/06/28 05:37:40;;;;;;;4.70;1.85;;;22.40;96.70;;;;;;5004173;28;20100;-75
2021/06/28 05:40:10;;;;;;;5.25;1.90;;;22.40;96.70;;;;;;4987073;28;20518;-75
2021/06/28 05:42:39;;;;;;;2.95;1.73;;;22.40;96.70;;;;;;5004868;28;20092;-74
2021/06/28 05:45:09;;;;;;;3.60;1.80;;;22.40;96.70;;;;;;5007331;28;20069;-74
2021/06/28 05:47:38;;;;;;;4.85;1.90;;;22.60;96.70;;;;;;5005999;28;20140;-74
2021/06/28 05:50:12;;;;;;;7.53;1.88;;;22.70;96.70;;;;;;5020618;28;20160;-74
2021/06/28 05:52:42;;;;;;;4.45;1.92;;;22.80;96.70;;;;;;4998625;28;20316;-74
2021/06/28 05:55:12;;;;;;;9.27;2.13;;;22.80;96.70;;;;;;5005542;28;20120;-74
2021/06/28 05:57:40;;;;;;;3.97;2.17;;;23.00;96.70;;;;;;5004820;28;20065;-74
2021/06/28 06:00:11;;;;;;;4.57;2.35;;;23.10;96.70;;;;;;5003928;28;20084;-75
2021/06/28 06:02:41;;;;;;;6.43;1.90;;;23.20;96.70;;;;;;5003435;28;20049;-75
2021/06/28 06:05:11;;;;;;;8.73;2.03;;;23.30;96.70;;;;;;5000791;28;20057;-75
2021/06/28 06:07:41;;;;;;;3.50;1.88;;;23.30;96.70;;;;;;5005727;28;20049;-75
2021/06/28 06:10:12;;;;;;;5.18;1.70;;;23.30;96.70;;;;;;5004170;28;20129;-75
2021/06/28 06:12:41;;;;;;;5.30;1.58;;;23.40;96.70;;;;;;5020140;28;20507;-75
2021/06/28 06:15:14;;;;;;;7.07;2.20;;;23.50;96.70;;;;;;5007947;28;20068;-75
2021/06/28 06:17:43;;;;;;;7.90;2.33;;;23.60;96.70;;;;;;5003126;28;20041;-75
2021/06/28 06:20:12;;;;;;;6.22;1.80;;;23.80;96.10;;;;;;5009925;28;20038;-75
2021/06/28 06:22:42;;;;;;;2.83;1.92;;;23.90;96.50;;;;;;5005257;28;20211;-75
2021/06/28 06:25:12;;;;;;;4.43;1.80;;;23.90;96.20;;;;;;5007079;28;20042;-75
2021/06/28 06:27:40;;;;;;;4.80;1.85;;;24.00;96.20;;;;;;4998613;28;20058;-75
2021/06/28 06:30:11;;;;;;;6.95;2.30;;;24.10;96.50;;;;;;5017164;28;20054;-75
2021/06/28 06:32:48;;;;;;;6.63;2.22;;;24.20;95.90;;;;;;5003713;28;20065;-75
2021/06/28 06:35:20;;;;;;;5.47;1.85;;;24.30;94.30;;;;;;5004756;28;20073;-75
2021/06/28 06:37:53;;;;;;;4.05;1.70;;;24.30;94.20;;;;;;5006417;28;20103;-75
2021/06/28 06:40:22;;;;;;;5.85;1.83;;;24.40;93.80;;;;;;5007977;28;20052;-75
2021/06/28 06:42:52;;;;;;;4.82;2.45;;;24.50;93.50;;;;;;5004312;28;20113;-75
2021/06/28 06:45:23;;;;;;;5.97;2.13;;;24.60;92.60;;;;;;5007237;28;21103;-74
2021/06/28 06:47:51;;;;;;;2.35;1.80;;;24.70;92.60;;;;;;5000256;28;20064;-75
2021/06/28 06:50:20;;;;;;;8.25;2.47;;;24.80;92.30;;;;;;5016126;28;20050;-77
2021/06/28 06:52:50;;;;;;;6.60;2.65;;;24.80;92.50;;;;;;5007307;28;20048;-76
2021/06/28 06:55:20;;;;;;;4.97;2.40;;;24.90;92.20;;;;;;5002935;28;20510;-76
2021/06/28 06:57:48;;;;;;;6.13;2.20;;;25.00;92.30;;;;;;5004011;28;20057;-76
2021/06/28 07:00:19;;;;;;;5.65;1.88;;;25.20;92.30;;;;;;5005881;28;20046;-76
2021/06/28 07:02:48;;;;;;;6.18;2.30;;;25.20;92.20;;;;;;5004635;28;20081;-77
2021/06/28 07:05:18;;;;;;;4.70;2.90;;;25.30;91.90;;;;;;5010261;28;20570;-76
2021/06/28 07:07:47;;;;;;;4.50;2.15;;;25.40;92.00;;;;;;5029481;28;20050;-77
2021/06/28 07:10:18;;;;;;;7.72;2.63;;;25.50;92.00;;;;;;5004962;28;20396;-76
2021/06/28 07:12:47;;;;;;;4.40;2.10;;;25.60;91.50;;;;;;5008859;28;20041;-76
2021/06/28 07:15:17;;;;;;;5.35;2.55;;;25.70;91.50;;;;;;5007698;28;20042;-75
2021/06/28 07:17:45;;;;;;;6.95;2.90;;;25.80;91.20;;;;;;5008761;28;20054;-76
2021/06/28 07:20:17;;;;;;;4.25;1.98;;;25.80;91.30;;;;;;5005001;28;20096;-76
2021/06/28 07:22:46;;;;;;;10.05;2.78;;;25.90;90.90;;;;;;5009478;28;20893;-77
2021/06/28 07:25:17;;;;;;;6.32;2.22;;;25.80;91.00;;;;;;5006955;28;20084;-76
2021/06/28 07:27:46;;;;;;;5.13;2.95;;;25.90;90.90;;;;;;5007066;28;20065;-75
2021/06/28 07:30:18;;;;;;;6.32;2.63;;;26.00;90.70;;;;;;5009212;28;20081;-75
2021/06/28 07:32:46;;;;;;;5.65;2.90;;;26.10;90.20;;;;;;5005220;28;20050;-75
2021/06/28 07:35:15;;;;;;;6.18;2.33;;;26.20;90.20;;;;;;5003322;28;20042;-75
2021/06/28 07:37:43;;;;;;;3.88;3.20;;;26.30;90.30;;;;;;4991353;28;20041;-76
2021/06/28 07:40:14;;;;;;;6.72;3.28;;;26.40;90.00;;;;;;5008571;28;20044;-75
2021/06/28 07:42:44;;;;;;;5.28;2.72;;;26.40;89.70;;;;;;5007073;28;20662;-76
2021/06/28 07:45:15;;;;;;;8.88;2.65;;;26.50;90.20;;;;;;5023951;28;20381;-76
2021/06/28 07:47:44;;;;;;;6.95;2.80;;;26.60;89.40;;;;;;5006097;28;20053;-77
2021/06/28 07:50:14;;;;;;;5.57;2.70;;;26.70;89.00;;;;;;4986511;28;20060;-76
2021/06/28 07:52:43;;;;;;;7.75;2.83;;;26.80;88.30;;;;;;5006706;28;20038;-76
2021/06/28 07:55:13;;;;;;;4.68;2.60;;;26.90;88.70;;;;;;5008834;28;20038;-77
2021/06/28 07:57:43;;;;;;;5.40;2.60;;;27.00;88.40;;;;;;5013566;28;20045;-77
2021/06/28 08:00:14;;;;;;;7.47;2.65;;;27.00;88.10;;;;;;5012413;28;20156;-77
2021/06/28 08:02:43;;;;;;;8.73;2.50;;;27.20;87.40;;;;;;5023365;28;20050;-77
2021/06/28 08:05:13;;;;;;;9.93;2.90;;;27.30;87.20;;;;;;5005970;28;20447;-76
2021/06/28 08:07:42;;;;;;;4.18;2.33;;;27.30;87.40;;;;;;5006351;28;20045;-75
2021/06/28 08:10:12;;;;;;;8.10;2.85;;;27.40;87.00;;;;;;5008253;28;20108;-76
2021/06/28 08:12:41;;;;;;;6.97;2.42;;;27.50;86.70;;;;;;5010144;28;20052;-75
2021/06/28 08:15:15;;;;;;;3.20;1.80;;;27.60;86.20;;;;;;5001361;28;20049;-75
2021/06/28 08:17:44;;;;;;;5.20;2.20;;;27.70;85.80;;;;;;5007948;28;20054;-75
2021/06/28 08:20:14;;;;;;;3.90;1.67;;;27.80;85.40;;;;;;5008704;28;20585;-76
2021/06/28 08:22:44;;;;;;;2.50;1.60;;;27.90;85.30;;;;;;4994575;28;20058;-75
2021/06/28 08:25:15;;;;;;;6.93;1.75;;;28.00;84.20;;;;;;5008683;28;20435;-75
2021/06/28 08:27:44;;;;;;;3.33;1.77;;;28.20;84.40;;;;;;5007292;28;20137;-75
2021/06/28 08:30:15;;;;;;;3.58;1.42;;;28.20;82.20;;;;;;5004541;28;20077;-74
2021/06/28 08:32:44;;;;;;;3.55;1.60;;;28.20;82.70;;;;;;5006418;28;20092;-74
2021/06/28 08:35:13;;;;;;;2.63;1.70;;;28.20;83.20;;;;;;5009600;28;20038;-75
2021/06/28 08:37:41;;;;;;;4.55;2.00;;;28.40;83.70;;;;;;5006608;28;20523;-75
2021/06/28 08:40:11;;;;;;;2.78;1.55;;;28.50;83.30;;;;;;5010322;28;20049;-75
2021/06/28 08:42:39;;;;;;;3.20;2.42;;;28.60;82.80;;;;;;5006227;28;21470;-74
2021/06/28 08:45:09;;;;;;;4.90;2.03;;;28.60;83.40;;;;;;5009980;28;20287;-74
2021/06/28 08:47:40;;;;;;;6.18;2.30;;;28.70;82.90;;;;;;5003693;28;20050;-75
2021/06/28 08:50:12;;;;;;;8.50;3.65;;;28.80;83.80;;;;;;5004655;28;20075;-74
2021/06/28 08:52:42;;;;;;;9.27;3.20;;;28.90;84.10;;;;;;5016959;28;20511;-75
2021/06/28 08:55:13;;;;;;;7.50;3.40;;;28.90;84.20;;;;;;5001574;28;20400;-75
2021/06/28 08:57:41;;;;;;;8.98;2.78;;;28.90;83.80;;;;;;5003626;28;20511;-75
2021/06/28 09:00:12;;;;;;;4.53;2.42;;;29.00;84.00;;;;;;5007160;28;20080;-74
2021/06/28 09:02:53;;;;;;;5.55;2.58;;;29.10;83.30;;;;;;5001832;28;20842;-74
2021/06/28 09:05:27;;;;;;;8.40;2.72;;;29.20;83.20;;;;;;5004450;28;20038;-74
2021/06/28 09:08:09;;;;;;;5.13;2.30;;;29.30;83.00;;;;;;5004996;28;20796;-75
2021/06/28 09:10:40;;;;;;;4.68;2.00;;;29.50;81.80;;;;;;5018996;28;20069;-74
2021/06/28 09:13:10;;;;;;;4.28;2.40;;;29.50;82.30;;;;;;5022219;28;20049;-74
2021/06/28 09:15:40;;;;;;;10.38;2.10;;;29.60;81.90;;;;;;5003551;28;20042;-74
2021/06/28 09:18:21;;;;;;;5.13;2.15;;;29.60;82.10;;;;;;5008314;28;20522;-74
2021/06/28 09:20:52;;;;;;;4.28;1.92;;;29.80;81.20;;;;;;5000593;28;20508;-74
2021/06/28 09:23:24;;;;;;;8.25;2.17;;;29.90;81.40;;;;;;5005812;28;20382;-74
2021/06/28 09:25:55;;;;;;;5.38;2.30;;;29.90;81.30;;;;;;5002830;28;20046;-75
2021/06/28 09:28:37;;;;;;;4.88;2.03;;;30.00;81.40;;;;;;5001782;28;20049;-74
2021/06/28 09:31:05;;;;;;;4.43;2.17;;;30.00;81.20;;;;;;5005133;28;20705;-74
2021/06/28 09:33:36;;;;;;;5.00;2.10;;;30.10;81.50;;;;;;5011344;28;20132;-74
2021/06/28 09:36:20;;;;;;;5.75;2.15;;;30.10;81.30;;;;;;5010263;28;20034;-74
2021/06/28 09:38:48;;;;;;;6.05;2.15;;;30.30;81.00;;;;;;5005076;28;20046;-74
2021/06/28 09:41:25;;;;;;;3.08;1.98;;;30.40;80.70;;;;;;5007708;28;20504;-74
2021/06/28 09:43:59;;;;;;;9.75;2.40;;;30.50;80.40;;;;;;5005624;28;20034;-74
2021/06/28 09:46:28;;;;;;;6.65;1.95;;;30.60;80.40;;;;;;5004401;28;20033;-74
2021/06/28 09:48:58;;;;;;;11.77;2.85;;;30.70;80.20;;;;;;5003903;28;20042;-73
2021/06/28 09:51:29;;;;;;;6.97;1.95;;;30.80;80.10;;;;;;5009539;28;20045;-74
2021/06/28 09:54:19;;;;;;;6.88;2.08;;;30.80;80.50;;;;;;4987378;28;20563;-74
2021/06/28 09:56:50;;;;;;;7.47;2.10;;;31.00;81.10;;;;;;5006090;28;20473;-74
2021/06/28 09:59:24;;;;;;;4.82;2.28;;;31.00;80.50;;;;;;5001833;28;20042;-74
2021/06/28 10:02:11;;;;;;;4.85;1.67;;;31.00;80.30;;;;;;4988909;28;20057;-74
2021/06/28 10:05:32;;;;;;;5.85;1.90;;;31.10;79.30;;;;;;4985886;28;20804;-74
2021/06/28 10:07:36;;;;;;;5.53;1.70;;;31.30;79.40;;;;;;4998498;28;20512;-74
2021/06/28 10:10:28;;;;;;;2.65;1.83;;;31.30;78.80;;;;;;5007315;28;20495;-74
2021/06/28 10:13:05;;;;;;;7.43;1.60;;;31.50;76.90;;;;;;4999958;28;20053;-74
2021/06/28 10:15:36;;;;;;;3.65;1.48;;;31.70;76.40;;;;;;4999658;28;20543;-74
2021/06/28 10:18:07;;;;;;;5.53;2.00;;;31.90;76.40;;;;;;4999717;28;20525;-74
2021/06/28 10:20:39;;;;;;;3.92;1.58;;;32.00;76.10;;;;;;5005104;28;20038;-74
2021/06/28 10:23:09;;;;;;;5.47;1.42;;;32.20;75.20;;;;;;4991129;28;20053;-74
2021/06/28 10:25:38;;;;;;;4.22;1.15;;;32.30;73.80;;;;;;5004412;28;20046;-74
2021/06/28 10:28:07;;;;;;;3.08;1.10;;;32.30;70.80;;;;;;5002846;28;20116;-74
2021/06/28 10:30:35;;;;;;;3.47;1.45;;;32.30;70.60;;;;;;5008320;28;20448;-74
2021/06/28 10:33:08;;;;;;;3.70;1.08;;;32.40;72.10;;;;;;5004717;28;20106;-74
2021/06/28 10:35:41;;;;;;;3.20;1.10;;;32.60;70.00;;;;;;5006497;28;20137;-74
2021/06/28 10:38:11;;;;;;;3.53;1.20;;;32.70;70.30;;;;;;4985328;28;20138;-73
2021/06/28 10:40:50;;;;;;;3.13;1.30;;;32.90;70.80;;;;;;5002395;28;20420;-74
2021/06/28 10:43:30;;;;;;;4.13;0.95;;;33.10;70.10;;;;;;5006627;28;20056;-74
2021/06/28 10:46:00;;;;;;;3.45;1.10;;;33.20;65.10;;;;;;4985371;28;20167;-74
2021/06/28 10:48:43;;;;;;;2.10;1.30;;;33.10;63.60;;;;;;5003553;28;20065;-74
2021/06/28 10:51:14;;;;;;;1.33;1.08;;;33.20;64.10;;;;;;5005419;28;20045;-73
2021/06/28 10:54:00;;;;;;;2.28;1.20;;;33.40;64.70;;;;;;5018992;28;20046;-74
2021/06/28 10:56:54;;;;;;;5.05;1.13;;;33.60;64.50;;;;;;5003851;28;20104;-74
2021/06/28 10:59:29;;;;;;;3.13;1.27;;;33.70;64.20;;;;;;5004519;28;20512;-74
2021/06/28 11:01:59;;;;;;;4.85;1.10;;;33.80;64.00;;;;;;5005304;28;20547;-74
2021/06/28 11:04:29;;;;;;;4.35;1.30;;;33.80;63.60;;;;;;5002816;28;20046;-74
2021/06/28 11:07:15;;;;;;;3.38;1.42;;;34.00;63.70;;;;;;5003757;28;20098;-74
2021/06/28 11:09:47;;;;;;;2.75;1.27;;;34.10;63.60;;;;;;5006404;28;20050;-74
2021/06/28 11:12:30;;;;;;;3.38;1.80;;;34.10;64.50;;;;;;5005364;28;20133;-74
2021/06/28 11:15:08;;;;;;;4.90;1.30;;;34.30;64.80;;;;;;5001442;28;20408;-74
2021/06/28 11:17:42;;;;;;;3.42;1.52;;;34.30;64.50;;;;;;4999509;28;20041;-74
2021/06/28 11:20:32;;;;;;;3.42;1.30;;;34.30;64.10;;;;;;5002680;28;20066;-74
2021/06/28 11:23:06;;;;;;;3.78;1.30;;;34.30;65.20;;;;;;5019295;28;20041;-74
2021/06/28 11:25:44;;;;;;;4.13;1.42;;;34.30;63.50;;;;;;5007959;28;20373;-74
2021/06/28 11:28:24;;;;;;;2.05;1.30;;;34.60;63.30;;;;;;5001041;28;20563;-74
2021/06/28 11:30:58;;;;;;;4.95;1.55;;;34.70;64.20;;;;;;5001094;28;20034;-74
2021/06/28 11:33:45;;;;;;;4.53;1.52;;;34.90;63.10;;;;;;5006018;28;20491;-74
2021/06/28 11:36:33;;;;;;;2.00;1.48;;;34.80;61.80;;;;;;5003866;28;20451;-74
2021/06/28 11:39:24;;;;;;;1.83;1.40;;;34.80;61.80;;;;;;5009970;28;20806;-74
2021/06/28 11:42:29;;;;;;;2.80;1.30;;;35.00;62.00;;;;;;5002873;28;20154;-74
2021/06/28 11:45:02;;;;;;;2.15;1.27;;;35.10;62.20;;;;;;4996897;28;20064;-74
2021/06/28 11:47:58;;;;;;;3.13;1.45;;;35.20;62.20;;;;;;5005427;28;20052;-74
2021/06/28 11:50:30;;;;;;;2.03;1.13;;;35.30;62.10;;;;;;5004901;28;20415;-73
2021/06/28 11:52:59;;;;;;;2.35;1.05;;;35.40;61.80;;;;;;5006033;28;20066;-74
2021/06/28 11:55:32;;;;;;;1.58;0.90;;;35.30;60.90;;;;;;4990705;28;20046;-73
2021/06/28 11:58:01;;;;;;;1.33;1.10;;;35.50;61.10;;;;;;4988463;28;20400;-74
2021/06/28 12:00:50;;;;;;;3.90;1.50;;;35.70;61.70;;;;;;5006697;28;20484;-74
2021/06/28 12:03:26;;;;;;;2.08;1.38;;;35.70;61.00;;;;;;5007496;28;20046;-74
2021/06/28 12:06:05;;;;;;;1.65;1.40;;;35.50;61.30;;;;;;4991435;28;20049;-74
2021/06/28 12:08:34;;;;;;;5.22;1.35;;;35.50;61.10;;;;;;5005958;28;20050;-73
2021/06/28 12:11:04;;;;;;;1.85;1.30;;;35.30;60.90;;;;;;5009778;28;20073;-73
2021/06/28 12:13:37;;;;;;;3.42;1.50;;;35.40;59.90;;;;;;5005683;28;20061;-74
2021/06/28 12:16:24;;;;;;;3.25;1.80;;;35.30;59.80;;;;;;5009298;28;20038;-73
2021/06/28 12:19:10;;;;;;;3.17;1.30;;;35.50;60.20;;;;;;5006145;28;20033;-74
2021/06/28 12:21:40;;;;;;;2.43;1.40;;;35.60;60.80;;;;;;5004296;28;20441;-73
2021/06/28 12:24:11;;;;;;;2.05;1.40;;;35.60;60.50;;;;;;5009241;28;20096;-74
2021/06/28 12:27:02;;;;;;;3.35;1.63;;;35.60;60.80;;;;;;5010333;28;20076;-74
2021/06/28 12:29:33;;;;;;;2.63;1.77;;;35.80;62.30;;;;;;5005595;28;20096;-74
2021/06/28 12:32:20;;;;;;;3.13;1.50;;;35.90;63.00;;;;;;5005221;28;20042;-74
2021/06/28 12:34:54;;;;;;;2.70;1.50;;;35.80;63.10;;;;;;5007979;28;20065;-74
2021/06/28 12:37:28;;;;;;;4.80;1.77;;;35.60;62.90;;;;;;5001539;28;20054;-74
2021/06/28 12:40:15;;;;;;;3.42;1.60;;;35.80;62.80;;;;;;5013523;28;20041;-74
2021/06/28 12:42:46;;;;;;;4.65;1.42;;;35.90;62.00;;;;;;5006235;28;20038;-74
2021/06/28 12:45:16;;;;;;;3.70;1.48;;;35.90;62.40;;;;;;5006977;28;20042;-74
2021/06/28 12:47:49;;;;;;;2.80;1.65;;;36.00;63.20;;;;;;5003216;28;20046;-74
2021/06/28 12:50:19;;;;;;;1.63;1.50;;;36.00;62.10;;;;;;5008468;28;20500;-74
2021/06/28 12:52:49;;;;;;;4.20;1.73;;;35.90;62.10;;;;;;5005609;28;20503;-74
2021/06/28 12:55:22;;;;;;;4.80;2.08;;;36.00;61.30;;;;;;5009857;28;20040;-74
2021/06/28 12:58:06;;;;;;;3.50;1.80;;;36.10;61.80;;;;;;5004521;28;20038;-74
2021/06/28 13:00:36;;;;;;;7.35;2.33;;;36.30;62.90;;;;;;5006717;28;20073;-73
2021/06/28 13:03:09;;;;;;;5.82;2.25;;;36.10;66.00;;;;;;5018835;28;20049;-74
2021/06/28 13:05:42;;;;;;;7.07;2.22;;;36.00;66.20;;;;;;5004656;28;20495;-74
2021/06/28 13:08:23;;;;;;;5.38;1.85;;;35.70;66.10;;;;;;4988910;28;20049;-74